createdAt,value
2018-12-19T00:01:31.309Z,19.50
2018-12-19T00:03:32.319Z,18.23
2018-12-19T00:05:33.351Z,19.97
2018-12-19T00:07:34.360Z,20.33
2018-12-19T00:09:35.270Z,19.80
2018-12-19T00:11:36.443Z,19.80
2018-12-19T00:13:37.580Z,20.07
2018-12-19T00:15:38.483Z,20.53
2018-12-19T00:17:39.567Z,20.60
2018-12-19T00:19:40.598Z,19.70
2018-12-19T00:21:41.615Z,22.03
2018-12-19T00:23:42.643Z,20.80
2018-12-19T00:25:43.735Z,21.30
2018-12-19T00:27:44.879Z,21.23
2018-12-19T00:29:45.991Z,19.77
2018-12-19T00:31:46.899Z,20.50
2018-12-19T00:33:47.926Z,21.03
2018-12-19T00:35:48.941Z,20.03
2018-12-19T00:37:49.962Z,21.33
2018-12-19T00:39:50.987Z,20.03
2018-12-19T00:41:52.091Z,21.50
2018-12-19T00:43:53.111Z,20.93
2018-12-19T00:45:54.135Z,20.23
2018-12-19T00:47:55.160Z,21.17
2018-12-19T00:49:56.192Z,21.13
2018-12-19T00:51:57.327Z,22.80
2018-12-19T00:53:58.343Z,21.40
2018-12-19T00:55:59.372Z,22.37
2018-12-19T00:58:00.390Z,20.73
2018-12-19T01:00:01.408Z,20.63
2018-12-19T01:02:02.551Z,20.50
2018-12-19T01:04:03.700Z,21.77
2018-12-19T01:06:04.715Z,20.90
2018-12-19T01:08:05.739Z,20.90
2018-12-19T01:10:06.771Z,20.73
2018-12-19T01:12:07.784Z,21.70
2018-12-19T01:14:08.823Z,20.30
2018-12-19T01:16:09.835Z,21.93
2018-12-19T01:18:10.863Z,22.63
2018-12-19T01:20:12.002Z,21.13
2018-12-19T01:22:13.032Z,20.97
2018-12-19T01:24:14.055Z,21.20
2018-12-19T01:26:15.074Z,21.00
2018-12-19T01:28:16.196Z,21.23
2018-12-19T01:30:17.227Z,21.80
2018-12-19T01:32:18.257Z,21.40
2018-12-19T01:34:19.285Z,22.17
2018-12-19T01:36:20.442Z,21.30
2018-12-19T01:38:21.595Z,21.87
2018-12-19T01:40:22.610Z,23.00
2018-12-19T01:42:23.623Z,22.83
2018-12-19T01:44:24.684Z,22.73
2018-12-19T01:46:25.699Z,22.27
2018-12-19T01:48:26.615Z,21.43
2018-12-19T01:50:27.675Z,21.93
2018-12-19T01:52:28.699Z,21.77
2018-12-19T01:54:29.736Z,22.47
2018-12-19T01:56:30.752Z,21.37
2018-12-19T01:58:31.758Z,23.07
2018-12-19T02:00:33.499Z,20.93
2018-12-19T02:02:34.535Z,21.13
2018-12-19T02:04:35.555Z,21.90
2018-12-19T02:06:36.599Z,22.03
2018-12-19T02:08:37.611Z,22.70
2018-12-19T02:10:38.654Z,22.70
2018-12-19T02:12:39.671Z,22.43
2018-12-19T02:14:40.579Z,22.33
2018-12-19T02:16:41.623Z,24.43
2018-12-19T02:18:42.634Z,24.53
2018-12-19T02:20:43.546Z,22.37
2018-12-19T02:22:44.694Z,22.60
2018-12-19T02:24:45.756Z,22.03
2018-12-19T02:26:46.788Z,22.63
2018-12-19T02:28:47.802Z,23.07
2018-12-19T02:30:48.831Z,21.27
2018-12-19T02:32:49.882Z,23.30
2018-12-19T02:34:50.994Z,22.47
2018-12-19T02:36:51.994Z,21.97
2018-12-19T02:38:53.014Z,21.60
2018-12-19T02:40:54.047Z,23.33
2018-12-19T02:42:55.008Z,22.30
2018-12-19T02:44:56.028Z,21.77
2018-12-19T02:46:57.060Z,20.80
2018-12-19T02:48:58.184Z,21.53
2018-12-19T02:50:59.099Z,20.63
2018-12-19T02:53:00.149Z,20.53
2018-12-19T02:55:01.292Z,20.87
2018-12-19T02:57:02.352Z,20.63
2018-12-19T02:59:03.375Z,21.70
2018-12-19T03:01:04.403Z,21.43
2018-12-19T03:03:05.415Z,22.03
2018-12-19T03:05:06.507Z,21.33
2018-12-19T03:07:07.527Z,23.70
2018-12-19T03:09:08.556Z,22.00
2018-12-19T03:11:10.708Z,22.03
2018-12-19T03:13:11.818Z,22.73
2018-12-19T03:15:12.857Z,22.50
2018-12-19T03:17:13.996Z,21.57
2018-12-19T03:19:15.011Z,21.70
2018-12-19T03:21:16.047Z,21.03
2018-12-19T03:23:17.061Z,22.57
2018-12-19T03:25:18.075Z,22.23
2018-12-19T03:27:19.098Z,21.93
2018-12-19T03:29:20.103Z,22.60
2018-12-19T03:31:21.040Z,20.70
2018-12-19T03:33:22.051Z,21.43
2018-12-19T03:35:23.070Z,21.77
2018-12-19T03:37:24.091Z,21.17
2018-12-19T03:39:25.152Z,21.37
2018-12-19T03:41:26.243Z,21.90
2018-12-19T03:43:27.278Z,22.67
2018-12-19T03:45:28.391Z,21.80
2018-12-19T03:47:29.404Z,21.97
2018-12-19T03:49:30.607Z,20.90
2018-12-19T03:51:31.664Z,22.57
2018-12-19T03:53:32.682Z,22.60
2018-12-19T03:55:33.682Z,22.57
2018-12-19T03:57:34.915Z,22.47
2018-12-19T03:59:36.017Z,21.83
2018-12-19T04:01:37.039Z,21.30
2018-12-19T04:03:38.058Z,21.70
2018-12-19T04:05:39.082Z,21.70
2018-12-19T04:07:40.211Z,22.90
2018-12-19T04:09:41.222Z,20.93
2018-12-19T04:11:42.240Z,21.10
2018-12-19T04:13:43.264Z,21.00
2018-12-19T04:15:44.376Z,20.23
2018-12-19T04:17:45.399Z,20.73
2018-12-19T04:19:46.424Z,20.80
2018-12-19T04:21:47.454Z,21.00
2018-12-19T04:23:48.573Z,21.37
2018-12-19T04:25:49.701Z,21.23
2018-12-19T04:27:50.817Z,20.60
2018-12-19T04:29:51.967Z,19.50
2018-12-19T04:31:52.984Z,20.77
2018-12-19T04:33:54.116Z,20.17
2018-12-19T04:35:55.243Z,20.97
2018-12-19T04:37:56.319Z,21.77
2018-12-19T04:39:57.338Z,20.60
2018-12-19T04:41:59.759Z,20.70
2018-12-19T04:44:00.767Z,20.63
2018-12-19T04:46:01.772Z,21.37
2018-12-19T04:48:02.801Z,20.60
2018-12-19T04:50:04.013Z,21.17
2018-12-19T04:52:05.017Z,20.17
2018-12-19T04:54:06.046Z,19.97
2018-12-19T04:56:07.057Z,20.80
2018-12-19T04:58:08.203Z,20.00
2018-12-19T05:00:09.363Z,20.97
2018-12-19T05:02:10.375Z,20.80
2018-12-19T05:04:11.423Z,21.00
2018-12-19T05:06:12.448Z,21.43
2018-12-19T05:08:13.342Z,20.17
2018-12-19T05:10:14.527Z,21.47
2018-12-19T05:12:15.642Z,21.77
2018-12-19T05:14:17.089Z,21.03
2018-12-19T05:16:18.103Z,21.27
2018-12-19T05:18:19.113Z,21.10
2018-12-19T05:20:20.143Z,20.27
2018-12-19T05:22:21.151Z,22.70
2018-12-19T05:24:22.181Z,21.87
2018-12-19T05:26:23.207Z,21.90
2018-12-19T05:28:24.227Z,21.87
2018-12-19T05:30:25.232Z,23.33
2018-12-19T05:32:26.255Z,22.13
2018-12-19T05:34:27.162Z,21.87
2018-12-19T05:36:28.183Z,22.33
2018-12-19T05:38:29.203Z,21.63
2018-12-19T05:40:30.210Z,21.90
2018-12-19T05:42:31.243Z,21.83
2018-12-19T05:44:32.246Z,20.63
2018-12-19T05:46:33.255Z,21.17
2018-12-19T05:48:34.274Z,20.97
2018-12-19T05:50:35.287Z,21.03
2018-12-19T05:52:36.531Z,21.67
2018-12-19T05:54:37.543Z,21.13
2018-12-19T05:56:38.604Z,20.03
2018-12-19T05:58:39.645Z,21.33
2018-12-19T06:00:40.658Z,20.93
2018-12-19T06:02:41.771Z,20.43
2018-12-19T06:04:42.782Z,20.83
2018-12-19T06:06:43.865Z,22.37
2018-12-19T06:08:44.878Z,20.97
2018-12-19T06:10:45.898Z,22.77
2018-12-19T06:12:46.903Z,20.57
2018-12-19T06:14:47.911Z,22.80
2018-12-19T06:16:48.932Z,20.50
2018-12-19T06:18:50.090Z,22.43
2018-12-19T06:20:51.122Z,21.67
2018-12-19T06:22:52.147Z,22.70
2018-12-19T06:24:53.154Z,22.33
2018-12-19T06:26:54.230Z,22.13
2018-12-19T06:28:55.238Z,22.50
2018-12-19T06:30:56.251Z,22.60
2018-12-19T06:32:57.275Z,21.67
2018-12-19T06:34:58.291Z,21.07
2018-12-19T06:36:59.330Z,21.87
2018-12-19T06:39:00.459Z,21.60
2018-12-19T06:41:01.475Z,22.87
2018-12-19T06:43:02.577Z,22.27
2018-12-19T06:45:03.615Z,21.63
2018-12-19T06:47:04.651Z,22.50
2018-12-19T06:49:05.659Z,21.37
2018-12-19T06:51:06.674Z,22.70
2018-12-19T06:53:07.738Z,22.00
2018-12-19T06:55:08.855Z,21.90
2018-12-19T06:57:09.875Z,22.60
2018-12-19T06:59:10.900Z,21.73
2018-12-19T07:01:11.941Z,22.30
2018-12-19T07:03:12.967Z,22.67
2018-12-19T07:05:14.020Z,22.30
2018-12-19T07:07:15.027Z,23.67
2018-12-19T07:09:16.307Z,22.13
2018-12-19T07:11:17.351Z,23.17
2018-12-19T07:13:18.398Z,22.60
2018-12-19T07:15:19.406Z,23.17
2018-12-19T07:17:20.423Z,22.43
2018-12-19T07:19:21.455Z,22.37
2018-12-19T07:21:22.478Z,21.53
2018-12-19T07:23:23.486Z,22.70
2018-12-19T07:27:32.323Z,23.00
2018-12-19T07:29:33.340Z,22.23
2018-12-19T07:31:34.447Z,22.70
2018-12-19T07:33:35.463Z,22.93
2018-12-19T07:35:36.486Z,20.90
2018-12-19T07:37:37.636Z,20.13
2018-12-19T07:39:38.654Z,21.27
2018-12-19T07:41:39.671Z,20.70
2018-12-19T07:43:40.687Z,21.40
2018-12-19T07:45:41.694Z,19.13
2018-12-19T07:47:42.834Z,20.07
2018-12-19T07:49:43.839Z,19.90
2018-12-19T07:51:44.871Z,21.03
2018-12-19T07:53:45.877Z,21.70
2018-12-19T07:55:47.002Z,20.83
2018-12-19T07:57:48.014Z,22.60
2018-12-19T07:59:49.028Z,21.07
2018-12-19T08:01:50.031Z,21.60
2018-12-19T08:03:51.166Z,21.27
2018-12-19T08:05:59.098Z,20.73
2018-12-19T08:08:00.110Z,20.30
2018-12-19T08:10:01.124Z,22.83
2018-12-19T08:12:02.131Z,22.43
2018-12-19T08:14:03.151Z,22.40
2018-12-19T08:16:04.223Z,22.70
2018-12-19T08:18:05.752Z,21.10
2018-12-19T08:20:06.852Z,23.77
2018-12-19T08:22:07.878Z,21.60
2018-12-19T08:24:08.902Z,22.40
2018-12-19T08:26:10.120Z,22.93
2018-12-19T08:28:11.167Z,22.67
2018-12-19T08:30:12.171Z,22.63
2018-12-19T08:32:13.198Z,22.13
2018-12-19T08:34:14.463Z,21.40
2018-12-19T08:36:15.470Z,22.50
2018-12-19T08:38:16.507Z,23.27
2018-12-19T08:40:17.511Z,24.03
2018-12-19T08:42:18.519Z,22.03
2018-12-19T08:44:19.565Z,21.67
2018-12-19T08:46:20.574Z,21.10
2018-12-19T08:48:21.643Z,23.70
2018-12-19T08:50:22.650Z,24.40
2018-12-19T08:52:23.760Z,23.57
2018-12-19T08:54:24.838Z,23.47
2018-12-19T08:56:25.896Z,24.87
2018-12-19T08:58:26.900Z,25.63
2018-12-19T09:00:27.912Z,24.83
2018-12-19T09:02:28.919Z,26.40
2018-12-19T09:04:30.007Z,25.40
2018-12-19T09:06:31.137Z,26.00
2018-12-19T09:08:32.143Z,26.23
2018-12-19T09:10:33.159Z,26.87
2018-12-19T09:12:34.311Z,26.80
2018-12-19T09:14:35.327Z,26.07
2018-12-19T09:16:36.382Z,26.13
2018-12-19T09:18:37.499Z,25.90
2018-12-19T09:20:38.507Z,25.83
2018-12-19T09:22:39.737Z,26.87
2018-12-19T09:24:41.431Z,26.40
2018-12-19T09:26:42.430Z,27.57
2018-12-19T09:28:43.447Z,26.77
2018-12-19T09:30:44.454Z,28.20
2018-12-19T09:32:45.475Z,27.90
2018-12-19T09:34:46.479Z,27.37
2018-12-19T09:36:47.488Z,24.47
2018-12-19T09:38:48.535Z,24.90
2018-12-19T09:40:49.587Z,25.13
2018-12-19T09:42:50.607Z,25.03
2018-12-19T09:44:51.615Z,25.90
2018-12-19T09:46:52.621Z,24.60
2018-12-19T09:48:53.648Z,25.23
2018-12-19T09:50:54.702Z,24.83
2018-12-19T09:52:55.650Z,24.53
2018-12-19T09:54:56.684Z,25.47
2018-12-19T09:56:57.747Z,24.80
2018-12-19T09:58:58.795Z,24.40
2018-12-19T10:00:59.807Z,23.43
2018-12-19T10:03:00.834Z,25.10
2018-12-19T10:05:01.924Z,26.37
2018-12-19T10:07:02.955Z,24.00
2018-12-19T10:09:04.300Z,23.83
2018-12-19T10:11:05.402Z,24.03
2018-12-19T10:13:06.462Z,25.40
2018-12-19T10:15:07.467Z,24.10
2018-12-19T10:17:08.488Z,23.47
2018-12-19T10:19:09.512Z,25.23
2018-12-19T10:21:10.518Z,23.87
2018-12-19T10:23:11.545Z,23.97
2018-12-19T10:25:14.031Z,25.27
2018-12-19T10:27:19.679Z,25.90
2018-12-19T10:29:20.718Z,26.20
2018-12-19T10:31:21.743Z,26.70
2018-12-19T10:33:22.802Z,27.33
2018-12-19T10:35:23.815Z,27.53
2018-12-19T10:37:24.843Z,29.27
2018-12-19T10:39:25.947Z,29.77
2018-12-19T10:41:27.161Z,29.60
2018-12-19T10:43:28.154Z,30.60
2018-12-19T10:45:29.270Z,28.70
2018-12-19T10:47:30.604Z,26.73
2018-12-19T10:49:31.771Z,26.07
2018-12-19T10:51:32.836Z,27.33
2018-12-19T10:53:33.958Z,28.50
2018-12-19T10:55:35.060Z,28.40
2018-12-19T10:57:36.086Z,28.20
2018-12-19T10:59:37.203Z,27.57
2018-12-19T11:01:38.227Z,26.97
2018-12-19T11:03:39.227Z,26.47
2018-12-19T11:05:40.251Z,25.50
2018-12-19T11:07:41.271Z,26.30
2018-12-19T11:09:42.275Z,27.10
2018-12-19T11:11:43.303Z,27.50
2018-12-19T11:13:44.341Z,25.70
2018-12-19T11:15:45.367Z,30.77
2018-12-19T11:17:46.524Z,31.17
2018-12-19T11:19:47.571Z,32.93
2018-12-19T11:21:48.578Z,32.10
2018-12-19T11:23:49.807Z,32.27
2018-12-19T11:25:50.830Z,31.23
2018-12-19T11:27:51.838Z,30.47
2018-12-19T11:29:52.859Z,29.43
2018-12-19T11:31:53.864Z,30.17
2018-12-19T11:33:54.878Z,28.37
2018-12-19T11:36:02.834Z,27.13
2018-12-19T11:38:03.863Z,28.13
2018-12-19T11:40:04.878Z,25.93
2018-12-19T11:42:06.051Z,27.80
2018-12-19T11:44:07.184Z,26.43
2018-12-19T11:46:08.170Z,27.50
2018-12-19T11:48:09.348Z,25.00
2018-12-19T11:50:10.362Z,26.70
2018-12-19T11:52:11.383Z,26.20
2018-12-19T11:54:12.462Z,26.07
2018-12-19T11:56:13.531Z,25.73
2018-12-19T11:58:14.551Z,25.53
2018-12-19T12:00:15.694Z,24.93
2018-12-19T12:02:16.751Z,26.70
2018-12-19T12:04:17.759Z,28.60
2018-12-19T12:06:18.759Z,28.63
2018-12-19T12:08:19.778Z,28.87
2018-12-19T12:10:20.683Z,30.07
2018-12-19T12:12:21.699Z,30.37
2018-12-19T12:14:22.756Z,29.53
2018-12-19T12:16:23.799Z,29.07
2018-12-19T12:18:24.832Z,30.50
2018-12-19T12:20:25.856Z,29.87
2018-12-19T12:22:26.884Z,28.80
2018-12-19T12:24:27.951Z,28.67
2018-12-19T12:26:28.962Z,26.97
2018-12-19T12:28:29.995Z,29.93
2018-12-19T12:30:31.008Z,29.50
2018-12-19T12:32:32.031Z,29.20
2018-12-19T12:34:33.063Z,29.53
2018-12-19T12:36:34.073Z,29.43
2018-12-19T12:38:35.111Z,27.03
2018-12-19T12:40:36.156Z,28.80
2018-12-19T12:42:37.410Z,29.23
2018-12-19T12:44:38.937Z,29.43
2018-12-19T12:46:39.987Z,29.57
2018-12-19T12:48:41.008Z,29.47
2018-12-19T12:50:42.055Z,28.83
2018-12-19T12:52:43.077Z,29.00
2018-12-19T12:54:44.228Z,28.37
2018-12-19T12:56:45.236Z,28.77
2018-12-19T12:58:46.250Z,27.40
2018-12-19T13:00:47.291Z,26.57
2018-12-19T13:02:48.299Z,27.23
2018-12-19T13:04:49.412Z,27.67
2018-12-19T13:06:50.451Z,28.53
2018-12-19T13:08:51.471Z,25.80
2018-12-19T13:10:52.516Z,27.63
2018-12-19T13:12:53.523Z,27.50
2018-12-19T13:14:54.571Z,28.53
2018-12-19T13:16:55.607Z,28.20
2018-12-19T13:18:56.614Z,29.20
2018-12-19T13:20:57.628Z,31.20
2018-12-19T13:22:58.658Z,28.43
2018-12-19T13:24:59.703Z,28.43
2018-12-19T13:27:00.706Z,29.13
2018-12-19T13:29:01.740Z,27.93
2018-12-19T13:31:02.864Z,28.00
2018-12-19T13:33:03.919Z,28.57
2018-12-19T13:35:04.932Z,29.77
2018-12-19T13:37:06.103Z,25.97
2018-12-19T13:39:07.111Z,27.90
2018-12-19T13:41:08.120Z,29.07
2018-12-19T13:43:09.233Z,28.30
2018-12-19T13:45:10.245Z,26.33
2018-12-19T13:47:11.255Z,29.57
2018-12-19T13:49:12.282Z,28.53
2018-12-19T13:51:13.310Z,28.80
2018-12-19T13:53:14.320Z,30.03
2018-12-19T13:55:15.355Z,30.93
2018-12-19T13:57:16.375Z,32.57
2018-12-19T13:59:17.399Z,34.07
2018-12-19T14:01:18.431Z,35.60
2018-12-19T14:03:19.445Z,38.03
2018-12-19T14:05:20.799Z,34.30
2018-12-19T14:07:21.804Z,34.30
2018-12-19T14:09:22.851Z,32.87
2018-12-19T14:11:23.883Z,35.13
2018-12-19T14:13:24.891Z,33.80
2018-12-19T14:15:25.943Z,36.07
2018-12-19T14:17:26.974Z,36.40
2018-12-19T14:19:27.978Z,36.00
2018-12-19T14:21:29.007Z,36.20
2018-12-19T14:23:30.083Z,37.37
2018-12-19T14:25:31.001Z,36.13
2018-12-19T14:27:31.931Z,35.57
2018-12-19T14:29:32.931Z,34.77
2018-12-19T14:31:33.944Z,32.60
2018-12-19T14:33:35.112Z,33.10
2018-12-19T14:35:36.174Z,31.60
2018-12-19T14:37:37.183Z,30.60
2018-12-19T14:39:38.207Z,30.30
2018-12-19T14:41:39.231Z,31.07
2018-12-19T14:43:40.359Z,30.53
2018-12-19T14:45:41.277Z,29.90
2018-12-19T14:47:42.435Z,29.87
2018-12-19T14:49:43.442Z,30.80
2018-12-19T14:51:44.466Z,31.70
2018-12-19T14:53:45.490Z,34.23
2018-12-19T14:55:46.499Z,34.33
2018-12-19T14:57:47.519Z,33.33
2018-12-19T14:59:48.531Z,33.47
2018-12-19T15:01:49.667Z,34.43
2018-12-19T15:03:50.752Z,33.17
2018-12-19T15:05:51.777Z,31.90
2018-12-19T15:07:52.790Z,37.05
2018-12-19T15:09:54.499Z,34.60
2018-12-19T15:11:55.654Z,32.90
2018-12-19T15:13:56.679Z,32.87
2018-12-19T15:16:02.416Z,30.43
2018-12-19T15:18:03.439Z,30.83
2018-12-19T15:20:04.447Z,31.90
2018-12-19T15:22:05.455Z,28.93
2018-12-19T15:24:06.481Z,28.70
2018-12-19T15:26:07.612Z,29.10
2018-12-19T15:28:08.643Z,31.20
2018-12-19T15:30:09.679Z,30.07
2018-12-19T15:32:10.687Z,29.53
2018-12-19T15:34:11.712Z,28.33
2018-12-19T15:36:13.071Z,25.13
2018-12-19T15:38:14.091Z,25.03
2018-12-19T15:40:15.099Z,24.60
2018-12-19T15:42:16.096Z,25.77
2018-12-19T15:44:17.126Z,24.20
2018-12-19T15:46:18.148Z,24.30
2018-12-19T15:48:19.270Z,24.77
2018-12-19T15:50:20.394Z,24.63
2018-12-19T15:52:21.395Z,24.30
2018-12-19T15:54:22.484Z,24.03
2018-12-19T15:56:23.494Z,23.60
2018-12-19T15:58:24.616Z,24.70
2018-12-19T16:00:25.647Z,26.70
2018-12-19T16:02:26.763Z,28.10
2018-12-19T16:04:27.836Z,27.67
2018-12-19T16:06:28.843Z,24.77
2018-12-19T16:08:29.775Z,24.73
2018-12-19T16:10:30.812Z,24.73
2018-12-19T16:12:31.826Z,24.33
2018-12-19T16:14:32.847Z,23.53
2018-12-19T16:16:33.990Z,23.93
2018-12-19T16:18:35.070Z,25.87
2018-12-19T16:20:36.075Z,25.73
2018-12-19T16:22:37.179Z,27.07
2018-12-19T16:24:38.182Z,27.13
2018-12-19T16:26:39.231Z,25.93
2018-12-19T16:28:40.250Z,27.40
2018-12-19T16:30:41.262Z,27.30
2018-12-19T16:32:42.284Z,25.47
2018-12-19T16:34:43.395Z,26.27
2018-12-19T16:36:44.403Z,26.60
2018-12-19T16:38:45.442Z,24.87
2018-12-19T16:40:46.446Z,26.23
2018-12-19T16:42:47.472Z,26.47
2018-12-19T16:44:48.583Z,24.70
2018-12-19T16:46:49.589Z,25.33
2018-12-19T16:48:50.610Z,27.53
2018-12-19T16:50:51.725Z,24.63
2018-12-19T16:52:52.740Z,24.97
2018-12-19T16:54:53.762Z,25.53
2018-12-19T16:56:54.808Z,25.47
2018-12-19T16:58:55.856Z,25.70
2018-12-19T17:00:56.891Z,27.60
2018-12-19T17:02:58.039Z,26.03
2018-12-19T17:04:59.047Z,26.50
2018-12-19T17:07:00.047Z,26.90
2018-12-19T17:09:01.052Z,24.93
2018-12-19T17:11:02.059Z,26.57
2018-12-19T17:13:03.189Z,25.37
2018-12-19T17:15:04.206Z,23.60
2018-12-19T17:17:05.210Z,25.67
2018-12-19T17:19:06.324Z,24.50
2018-12-19T17:21:07.335Z,25.27
2018-12-19T17:23:08.347Z,28.00
2018-12-19T17:25:09.364Z,26.03
2018-12-19T17:27:10.379Z,27.17
2018-12-19T17:29:11.411Z,25.17
2018-12-19T17:31:12.459Z,26.30
2018-12-19T17:33:13.511Z,30.63
2018-12-19T17:35:14.544Z,26.60
2018-12-19T17:37:15.580Z,27.30
2018-12-19T17:39:16.718Z,27.67
2018-12-19T17:41:17.756Z,27.93
2018-12-19T17:43:18.783Z,26.87
2018-12-19T17:45:19.811Z,27.73
2018-12-19T17:47:20.824Z,26.73
2018-12-19T17:49:21.915Z,25.67
2018-12-19T17:51:22.926Z,25.27
2018-12-19T17:53:23.842Z,25.90
2018-12-19T17:55:24.863Z,26.10
2018-12-19T17:57:25.875Z,26.53
2018-12-19T17:59:26.900Z,24.27
2018-12-19T18:01:27.928Z,26.17
2018-12-19T18:03:28.983Z,24.70
2018-12-19T18:05:29.995Z,25.33
2018-12-19T18:07:31.018Z,24.87
2018-12-19T18:09:32.030Z,24.10
2018-12-19T18:11:33.035Z,22.50
2018-12-19T18:13:34.155Z,24.77
2018-12-19T18:15:35.162Z,27.53
2018-12-19T18:17:36.179Z,24.30
2018-12-19T18:19:37.291Z,24.30
2018-12-19T18:21:38.318Z,24.50
2018-12-19T18:23:39.331Z,25.37
2018-12-19T18:25:40.442Z,27.13
2018-12-19T18:27:41.475Z,27.23
2018-12-19T18:29:42.490Z,27.33
2018-12-19T18:31:43.627Z,29.53
2018-12-19T18:33:44.658Z,26.37
2018-12-19T18:35:45.663Z,27.90
2018-12-19T18:37:46.666Z,26.00
2018-12-19T18:39:47.682Z,28.53
2018-12-19T18:41:48.742Z,30.30
2018-12-19T18:43:49.751Z,29.90
2018-12-19T18:45:50.764Z,29.67
2018-12-19T18:47:51.799Z,31.57
2018-12-19T18:49:52.927Z,28.53
2018-12-19T18:51:53.943Z,29.07
2018-12-19T18:53:55.011Z,31.43
2018-12-19T18:55:56.148Z,29.87
2018-12-19T18:57:57.382Z,31.47
2018-12-19T18:59:58.502Z,32.60
2018-12-19T19:01:59.511Z,31.37
2018-12-19T19:04:00.530Z,33.43
2018-12-19T19:06:01.742Z,32.00
2018-12-19T19:08:02.815Z,32.73
2018-12-19T19:10:03.815Z,31.37
2018-12-19T19:12:04.847Z,33.80
2018-12-19T19:14:05.883Z,32.37
2018-12-19T19:16:06.903Z,32.20
2018-12-19T19:18:07.915Z,29.10
2018-12-19T19:20:08.926Z,29.60
2018-12-19T19:22:10.112Z,30.53
2018-12-19T19:24:11.216Z,33.57
2018-12-19T19:26:12.223Z,29.60
2018-12-19T19:28:13.245Z,30.67
2018-12-19T19:30:14.250Z,33.83
2018-12-19T19:32:15.383Z,31.43
2018-12-19T19:34:16.402Z,34.07
2018-12-19T19:36:17.426Z,32.40
2018-12-19T19:38:18.443Z,35.13
2018-12-19T19:40:19.464Z,32.17
2018-12-19T19:42:20.505Z,32.00
2018-12-19T19:44:21.454Z,34.30
2018-12-19T19:46:22.489Z,33.67
2018-12-19T19:48:23.395Z,33.23
2018-12-19T19:50:24.471Z,32.37
2018-12-19T19:52:25.520Z,33.03
2018-12-19T19:54:26.554Z,32.90
2018-12-19T19:56:27.674Z,32.23
2018-12-19T19:58:28.686Z,32.13
2018-12-19T20:00:31.743Z,33.33
2018-12-19T20:02:32.755Z,30.70
2018-12-19T20:04:33.772Z,31.00
2018-12-19T20:06:34.811Z,30.13
2018-12-19T20:08:35.879Z,29.27
2018-12-19T20:10:36.924Z,28.90
2018-12-19T20:12:37.967Z,30.33
2018-12-19T20:14:39.010Z,29.00
2018-12-19T20:16:45.843Z,28.63
2018-12-19T20:18:47.016Z,29.63
2018-12-19T20:20:48.035Z,28.20
2018-12-19T20:22:49.047Z,27.50
2018-12-19T20:24:50.119Z,29.13
2018-12-19T20:26:51.143Z,28.40
2018-12-19T20:28:52.168Z,28.73
2018-12-19T20:30:53.190Z,27.80
2018-12-19T20:32:54.198Z,28.30
2018-12-19T20:34:55.300Z,28.10
2018-12-19T20:36:56.435Z,29.33
2018-12-19T20:38:57.448Z,28.97
2018-12-19T20:40:58.479Z,30.30
2018-12-19T20:43:06.357Z,32.80
2018-12-19T20:45:02.633Z,31.77
2018-12-19T20:47:03.663Z,36.33
2018-12-19T20:49:04.671Z,30.33
2018-12-19T20:51:05.695Z,33.03
2018-12-19T20:53:06.744Z,32.80
2018-12-19T20:55:07.848Z,32.00
2018-12-19T20:57:08.966Z,28.80
2018-12-19T20:59:10.090Z,30.53
2018-12-19T21:01:11.260Z,32.43
2018-12-19T21:03:12.373Z,28.60
2018-12-19T21:05:13.408Z,32.43
2018-12-19T21:07:14.531Z,30.80
2018-12-19T21:09:15.634Z,32.03
2018-12-19T21:11:16.982Z,34.67
2018-12-19T21:13:18.000Z,32.80
2018-12-19T21:15:19.016Z,31.30
2018-12-19T21:17:25.811Z,35.33
2018-12-19T21:19:33.987Z,32.20
2018-12-19T21:21:34.991Z,32.97
2018-12-19T21:23:36.032Z,31.10
2018-12-19T21:25:37.147Z,32.07
2018-12-19T21:27:38.175Z,32.97
2018-12-19T21:29:39.291Z,32.03
2018-12-19T21:31:40.329Z,31.67
2018-12-19T21:33:41.336Z,30.00
2018-12-19T21:35:42.344Z,27.00
2018-12-19T21:37:43.427Z,27.37
2018-12-19T21:39:44.520Z,29.77
2018-12-19T21:41:45.667Z,27.20
2018-12-19T21:43:53.456Z,26.27
2018-12-19T21:45:51.868Z,26.37
2018-12-19T21:47:52.791Z,25.00
2018-12-19T21:49:53.812Z,23.80
2018-12-19T21:51:54.852Z,28.90
2018-12-19T21:53:55.955Z,27.40
2018-12-19T21:55:57.038Z,23.47
2018-12-19T21:57:58.159Z,25.03
2018-12-19T21:59:59.282Z,28.30
2018-12-19T22:02:00.438Z,25.07
2018-12-19T22:04:01.526Z,25.77
2018-12-19T22:06:02.607Z,26.23
2018-12-19T22:08:03.958Z,26.00
2018-12-19T22:10:05.180Z,29.67
2018-12-19T22:12:06.235Z,17.95
2018-12-19T22:14:07.255Z,10.63
2018-12-19T22:16:10.518Z,9.43
2018-12-19T22:18:17.231Z,11.50
2018-12-19T22:20:18.351Z,14.70
2018-12-19T22:22:19.489Z,31.12
2018-12-19T22:24:20.530Z,26.10
2018-12-19T22:26:21.678Z,27.47
2018-12-19T22:28:22.741Z,27.13
2018-12-19T22:30:23.926Z,24.23
2018-12-19T22:32:24.974Z,23.03
2018-12-19T22:34:26.088Z,21.13
2018-12-19T22:36:27.112Z,22.67
2018-12-19T22:38:28.305Z,22.60
2018-12-19T22:40:29.395Z,21.63
2018-12-19T22:42:30.590Z,26.03
2018-12-19T22:44:31.754Z,25.50
2018-12-19T22:46:32.868Z,24.67
2018-12-19T22:48:34.150Z,26.37
2018-12-19T22:50:35.306Z,25.53
2018-12-19T22:52:36.340Z,28.50
2018-12-19T22:54:37.542Z,24.33
2018-12-19T22:56:38.618Z,26.40
2018-12-19T22:58:39.680Z,24.10
2018-12-19T23:00:46.527Z,22.77
2018-12-19T23:02:53.556Z,23.77
2018-12-19T23:04:54.587Z,27.53
2018-12-19T23:06:55.930Z,26.03
2018-12-19T23:08:57.079Z,28.63
2018-12-19T23:10:58.177Z,29.83
2018-12-19T23:12:59.291Z,27.50
2018-12-19T23:15:00.294Z,26.73
2018-12-19T23:17:05.889Z,28.20
2018-12-19T23:19:07.154Z,24.97
2018-12-19T23:21:08.317Z,28.10
2018-12-19T23:23:09.504Z,25.03
2018-12-19T23:25:10.596Z,25.07
2018-12-19T23:27:11.597Z,25.17
2018-12-19T23:29:12.626Z,24.97
2018-12-19T23:31:13.668Z,29.83
2018-12-19T23:33:14.762Z,27.97
2018-12-19T23:35:16.117Z,25.73
2018-12-19T23:37:17.283Z,25.30
2018-12-19T23:39:18.394Z,25.07
2018-12-19T23:41:19.423Z,25.40
2018-12-19T23:43:20.326Z,26.23
2018-12-19T23:45:21.336Z,26.73
2018-12-19T23:47:22.370Z,25.83
2018-12-19T23:49:23.379Z,23.57
2018-12-19T23:51:24.459Z,23.00
2018-12-19T23:53:25.613Z,22.73
2018-12-19T23:55:26.749Z,24.50
2018-12-19T23:57:27.812Z,26.00
2018-12-19T23:59:28.919Z,23.90
